sensor_id;sensor_type;location;lat;lon;timestamp;P1;durP1;ratioP1;P2;durP2;ratioP2
3941;SDS011;1985;48.592;8.850;2023-07-29T00:01:33;10.90;;;1.90;;
3941;SDS011;1985;48.592;8.850;2023-07-29T00:03:59;11.48;;;2.25;;
3941;SDS011;1985;48.592;8.850;2023-07-29T00:06:25;11.50;;;2.40;;
3941;SDS011;1985;48.592;8.850;2023-07-29T00:08:50;12.53;;;2.57;;
3941;SDS011;1985;48.592;8.850;2023-07-29T00:11:16;8.83;;;2.17;;
3941;SDS011;1985;48.592;8.850;2023-07-29T00:13:41;9.10;;;2.10;;
3941;SDS011;1985;48.592;8.850;2023-07-29T00:16:07;8.40;;;2.15;;
3941;SDS011;1985;48.592;8.850;2023-07-29T00:18:33;11.48;;;2.78;;
3941;SDS011;1985;48.592;8.850;2023-07-29T00:20:58;10.40;;;2.63;;
3941;SDS011;1985;48.592;8.850;2023-07-29T00:23:24;11.13;;;2.47;;
3941;SDS011;1985;48.592;8.850;2023-07-29T00:25:49;10.32;;;2.60;;
3941;SDS011;1985;48.592;8.850;2023-07-29T00:28:15;11.10;;;2.50;;
3941;SDS011;1985;48.592;8.850;2023-07-29T00:30:41;13.00;;;2.67;;
3941;SDS011;1985;48.592;8.850;2023-07-29T00:33:07;15.48;;;2.78;;
3941;SDS011;1985;48.592;8.850;2023-07-29T00:35:32;10.90;;;2.72;;
3941;SDS011;1985;48.592;8.850;2023-07-29T00:37:59;12.73;;;2.50;;
3941;SDS011;1985;48.592;8.850;2023-07-29T00:40:24;10.67;;;2.50;;
3941;SDS011;1985;48.592;8.850;2023-07-29T00:42:53;12.68;;;2.83;;
3941;SDS011;1985;48.592;8.850;2023-07-29T00:45:18;9.30;;;2.20;;
3941;SDS011;1985;48.592;8.850;2023-07-29T00:47:44;13.52;;;2.38;;
3941;SDS011;1985;48.592;8.850;2023-07-29T00:50:11;10.90;;;2.30;;
3941;SDS011;1985;48.592;8.850;2023-07-29T00:52:38;13.53;;;2.27;;
3941;SDS011;1985;48.592;8.850;2023-07-29T00:55:04;12.20;;;2.40;;
3941;SDS011;1985;48.592;8.850;2023-07-29T00:57:30;11.57;;;2.55;;
3941;SDS011;1985;48.592;8.850;2023-07-29T00:59:57;11.88;;;2.42;;
3941;SDS011;1985;48.592;8.850;2023-07-29T01:02:23;9.80;;;2.50;;
3941;SDS011;1985;48.592;8.850;2023-07-29T01:04:55;9.57;;;2.40;;
3941;SDS011;1985;48.592;8.850;2023-07-29T01:10:01;12.63;;;2.65;;
3941;SDS011;1985;48.592;8.850;2023-07-29T01:15:18;9.82;;;2.63;;
3941;SDS011;1985;48.592;8.850;2023-07-29T01:18:05;14.70;;;2.40;;
3941;SDS011;1985;48.592;8.850;2023-07-29T01:20:33;11.90;;;2.50;;
3941;SDS011;1985;48.592;8.850;2023-07-29T01:23:03;9.23;;;2.00;;
3941;SDS011;1985;48.592;8.850;2023-07-29T01:25:29;8.20;;;2.05;;
3941;SDS011;1985;48.592;8.850;2023-07-29T01:27:54;13.20;;;2.15;;
3941;SDS011;1985;48.592;8.850;2023-07-29T01:30:21;13.17;;;2.90;;
3941;SDS011;1985;48.592;8.850;2023-07-29T01:32:56;10.47;;;2.90;;
3941;SDS011;1985;48.592;8.850;2023-07-29T01:35:52;14.15;;;3.20;;
3941;SDS011;1985;48.592;8.850;2023-07-29T01:41:19;13.50;;;2.60;;
3941;SDS011;1985;48.592;8.850;2023-07-29T01:43:46;22.17;;;3.03;;
3941;SDS011;1985;48.592;8.850;2023-07-29T01:46:15;14.87;;;3.00;;
3941;SDS011;1985;48.592;8.850;2023-07-29T01:48:41;17.63;;;2.92;;
3941;SDS011;1985;48.592;8.850;2023-07-29T01:51:07;19.98;;;3.30;;
3941;SDS011;1985;48.592;8.850;2023-07-29T01:53:34;10.53;;;3.30;;
3941;SDS011;1985;48.592;8.850;2023-07-29T01:55:59;11.05;;;2.67;;
3941;SDS011;1985;48.592;8.850;2023-07-29T01:58:26;11.50;;;3.50;;
3941;SDS011;1985;48.592;8.850;2023-07-29T02:00:52;13.50;;;3.60;;
3941;SDS011;1985;48.592;8.850;2023-07-29T02:03:17;13.77;;;3.80;;
3941;SDS011;1985;48.592;8.850;2023-07-29T02:05:43;25.17;;;4.35;;
3941;SDS011;1985;48.592;8.850;2023-07-29T02:08:09;29.13;;;3.88;;
3941;SDS011;1985;48.592;8.850;2023-07-29T02:10:35;32.30;;;3.95;;
3941;SDS011;1985;48.592;8.850;2023-07-29T02:13:01;17.07;;;4.27;;
3941;SDS011;1985;48.592;8.850;2023-07-29T02:15:26;17.63;;;3.40;;
3941;SDS011;1985;48.592;8.850;2023-07-29T02:17:53;20.58;;;3.85;;
3941;SDS011;1985;48.592;8.850;2023-07-29T02:20:18;17.30;;;4.50;;
3941;SDS011;1985;48.592;8.850;2023-07-29T02:22:44;20.30;;;4.00;;
3941;SDS011;1985;48.592;8.850;2023-07-29T02:25:10;32.85;;;3.95;;
3941;SDS011;1985;48.592;8.850;2023-07-29T02:27:36;18.90;;;3.80;;
3941;SDS011;1985;48.592;8.850;2023-07-29T02:30:02;25.30;;;3.80;;
3941;SDS011;1985;48.592;8.850;2023-07-29T02:32:28;23.70;;;4.10;;
3941;SDS011;1985;48.592;8.850;2023-07-29T02:34:54;14.50;;;4.00;;
3941;SDS011;1985;48.592;8.850;2023-07-29T02:37:19;20.30;;;3.70;;
3941;SDS011;1985;48.592;8.850;2023-07-29T02:39:45;24.33;;;4.00;;
3941;SDS011;1985;48.592;8.850;2023-07-29T02:42:11;13.05;;;3.40;;
3941;SDS011;1985;48.592;8.850;2023-07-29T02:44:36;16.70;;;3.33;;
3941;SDS011;1985;48.592;8.850;2023-07-29T02:47:02;13.10;;;3.10;;
3941;SDS011;1985;48.592;8.850;2023-07-29T02:49:28;9.93;;;3.13;;
3941;SDS011;1985;48.592;8.850;2023-07-29T02:51:54;13.88;;;3.10;;
3941;SDS011;1985;48.592;8.850;2023-07-29T02:54:20;10.40;;;3.03;;
3941;SDS011;1985;48.592;8.850;2023-07-29T02:56:45;9.40;;;2.80;;
3941;SDS011;1985;48.592;8.850;2023-07-29T02:59:11;10.23;;;2.60;;
3941;SDS011;1985;48.592;8.850;2023-07-29T03:01:36;10.43;;;3.42;;
3941;SDS011;1985;48.592;8.850;2023-07-29T03:04:02;10.13;;;2.77;;
3941;SDS011;1985;48.592;8.850;2023-07-29T03:06:28;9.40;;;2.90;;
3941;SDS011;1985;48.592;8.850;2023-07-29T03:08:53;9.88;;;2.90;;
3941;SDS011;1985;48.592;8.850;2023-07-29T03:11:19;13.00;;;3.00;;
3941;SDS011;1985;48.592;8.850;2023-07-29T03:13:45;10.02;;;2.50;;
3941;SDS011;1985;48.592;8.850;2023-07-29T03:16:11;9.75;;;3.30;;
3941;SDS011;1985;48.592;8.850;2023-07-29T03:18:39;12.25;;;3.30;;
3941;SDS011;1985;48.592;8.850;2023-07-29T03:21:06;10.07;;;2.88;;
3941;SDS011;1985;48.592;8.850;2023-07-29T03:23:32;9.60;;;3.30;;
3941;SDS011;1985;48.592;8.850;2023-07-29T03:25:59;10.20;;;3.20;;
3941;SDS011;1985;48.592;8.850;2023-07-29T03:28:27;10.00;;;3.10;;
3941;SDS011;1985;48.592;8.850;2023-07-29T03:30:54;9.50;;;2.83;;
3941;SDS011;1985;48.592;8.850;2023-07-29T03:33:20;9.00;;;2.50;;
3941;SDS011;1985;48.592;8.850;2023-07-29T03:35:46;11.63;;;2.60;;
3941;SDS011;1985;48.592;8.850;2023-07-29T03:38:12;12.43;;;2.80;;
3941;SDS011;1985;48.592;8.850;2023-07-29T03:40:38;9.43;;;2.80;;
3941;SDS011;1985;48.592;8.850;2023-07-29T03:43:04;15.60;;;2.75;;
3941;SDS011;1985;48.592;8.850;2023-07-29T03:45:29;9.77;;;2.87;;
3941;SDS011;1985;48.592;8.850;2023-07-29T03:47:55;11.07;;;3.13;;
3941;SDS011;1985;48.592;8.850;2023-07-29T03:50:21;13.33;;;3.30;;
3941;SDS011;1985;48.592;8.850;2023-07-29T03:52:47;11.55;;;3.10;;
3941;SDS011;1985;48.592;8.850;2023-07-29T03:55:12;9.30;;;3.30;;
3941;SDS011;1985;48.592;8.850;2023-07-29T03:57:38;9.33;;;2.93;;
3941;SDS011;1985;48.592;8.850;2023-07-29T04:00:04;9.47;;;2.60;;
3941;SDS011;1985;48.592;8.850;2023-07-29T04:02:30;10.90;;;2.80;;
3941;SDS011;1985;48.592;8.850;2023-07-29T04:04:56;12.63;;;2.40;;
3941;SDS011;1985;48.592;8.850;2023-07-29T04:07:22;10.43;;;2.30;;
3941;SDS011;1985;48.592;8.850;2023-07-29T04:09:48;8.80;;;2.50;;
3941;SDS011;1985;48.592;8.850;2023-07-29T04:12:14;9.93;;;2.70;;
3941;SDS011;1985;48.592;8.850;2023-07-29T04:14:40;10.50;;;2.90;;
3941;SDS011;1985;48.592;8.850;2023-07-29T04:17:06;9.63;;;2.33;;
3941;SDS011;1985;48.592;8.850;2023-07-29T04:19:32;9.73;;;2.30;;
3941;SDS011;1985;48.592;8.850;2023-07-29T04:21:58;10.60;;;2.63;;
3941;SDS011;1985;48.592;8.850;2023-07-29T04:24:24;8.32;;;2.40;;
3941;SDS011;1985;48.592;8.850;2023-07-29T04:26:50;11.90;;;2.40;;
3941;SDS011;1985;48.592;8.850;2023-07-29T04:29:15;10.27;;;2.50;;
3941;SDS011;1985;48.592;8.850;2023-07-29T04:31:41;9.70;;;2.40;;
3941;SDS011;1985;48.592;8.850;2023-07-29T04:34:07;9.95;;;2.30;;
3941;SDS011;1985;48.592;8.850;2023-07-29T04:36:33;12.40;;;2.43;;
3941;SDS011;1985;48.592;8.850;2023-07-29T04:38:58;10.87;;;2.43;;
3941;SDS011;1985;48.592;8.850;2023-07-29T04:41:24;15.83;;;2.87;;
3941;SDS011;1985;48.592;8.850;2023-07-29T04:43:49;13.70;;;2.72;;
3941;SDS011;1985;48.592;8.850;2023-07-29T04:46:15;11.88;;;2.75;;
3941;SDS011;1985;48.592;8.850;2023-07-29T04:48:41;11.73;;;2.80;;
3941;SDS011;1985;48.592;8.850;2023-07-29T04:51:06;10.97;;;2.90;;
3941;SDS011;1985;48.592;8.850;2023-07-29T04:53:32;12.13;;;2.80;;
3941;SDS011;1985;48.592;8.850;2023-07-29T04:55:59;9.10;;;2.60;;
3941;SDS011;1985;48.592;8.850;2023-07-29T04:58:25;12.80;;;2.63;;
3941;SDS011;1985;48.592;8.850;2023-07-29T05:00:53;12.20;;;2.60;;
3941;SDS011;1985;48.592;8.850;2023-07-29T05:03:19;13.60;;;2.67;;
3941;SDS011;1985;48.592;8.850;2023-07-29T05:05:45;10.43;;;2.33;;
3941;SDS011;1985;48.592;8.850;2023-07-29T05:08:10;11.52;;;2.60;;
3941;SDS011;1985;48.592;8.850;2023-07-29T05:10:36;13.27;;;2.33;;
3941;SDS011;1985;48.592;8.850;2023-07-29T05:13:01;12.97;;;2.70;;
3941;SDS011;1985;48.592;8.850;2023-07-29T05:15:27;9.53;;;2.33;;
3941;SDS011;1985;48.592;8.850;2023-07-29T05:17:53;9.00;;;2.00;;
3941;SDS011;1985;48.592;8.850;2023-07-29T05:20:18;8.40;;;1.80;;
3941;SDS011;1985;48.592;8.850;2023-07-29T05:22:44;11.87;;;2.50;;
3941;SDS011;1985;48.592;8.850;2023-07-29T05:25:09;11.47;;;2.80;;
3941;SDS011;1985;48.592;8.850;2023-07-29T05:27:39;10.57;;;2.65;;
3941;SDS011;1985;48.592;8.850;2023-07-29T05:30:06;11.47;;;2.20;;
3941;SDS011;1985;48.592;8.850;2023-07-29T05:32:32;13.05;;;2.70;;
3941;SDS011;1985;48.592;8.850;2023-07-29T05:34:58;9.93;;;2.42;;
3941;SDS011;1985;48.592;8.850;2023-07-29T05:37:23;10.10;;;2.43;;
3941;SDS011;1985;48.592;8.850;2023-07-29T05:39:49;13.53;;;2.43;;
3941;SDS011;1985;48.592;8.850;2023-07-29T05:42:14;13.57;;;3.60;;
3941;SDS011;1985;48.592;8.850;2023-07-29T05:44:40;11.45;;;2.60;;
3941;SDS011;1985;48.592;8.850;2023-07-29T05:47:05;12.13;;;2.50;;
3941;SDS011;1985;48.592;8.850;2023-07-29T05:49:31;11.50;;;2.60;;
3941;SDS011;1985;48.592;8.850;2023-07-29T05:51:57;9.40;;;2.60;;
3941;SDS011;1985;48.592;8.850;2023-07-29T05:54:23;15.93;;;2.83;;
3941;SDS011;1985;48.592;8.850;2023-07-29T05:56:48;8.70;;;2.23;;
3941;SDS011;1985;48.592;8.850;2023-07-29T05:59:14;9.93;;;2.67;;
3941;SDS011;1985;48.592;8.850;2023-07-29T06:01:39;10.80;;;2.57;;
3941;SDS011;1985;48.592;8.850;2023-07-29T06:04:05;9.50;;;2.60;;
3941;SDS011;1985;48.592;8.850;2023-07-29T06:06:31;13.38;;;2.67;;
3941;SDS011;1985;48.592;8.850;2023-07-29T06:08:56;8.90;;;2.20;;
3941;SDS011;1985;48.592;8.850;2023-07-29T06:11:23;9.95;;;2.67;;
3941;SDS011;1985;48.592;8.850;2023-07-29T06:13:48;9.10;;;2.07;;
3941;SDS011;1985;48.592;8.850;2023-07-29T06:16:14;9.97;;;2.20;;
3941;SDS011;1985;48.592;8.850;2023-07-29T06:18:39;10.23;;;2.42;;
3941;SDS011;1985;48.592;8.850;2023-07-29T06:21:05;11.07;;;2.70;;
3941;SDS011;1985;48.592;8.850;2023-07-29T06:23:33;10.40;;;2.58;;
3941;SDS011;1985;48.592;8.850;2023-07-29T06:25:59;9.85;;;2.60;;
3941;SDS011;1985;48.592;8.850;2023-07-29T06:28:25;9.35;;;2.80;;
3941;SDS011;1985;48.592;8.850;2023-07-29T06:30:52;14.20;;;2.75;;
3941;SDS011;1985;48.592;8.850;2023-07-29T06:33:17;8.82;;;2.20;;
3941;SDS011;1985;48.592;8.850;2023-07-29T06:35:43;9.30;;;2.03;;
3941;SDS011;1985;48.592;8.850;2023-07-29T06:38:09;8.93;;;2.10;;
3941;SDS011;1985;48.592;8.850;2023-07-29T06:40:34;8.07;;;2.00;;
3941;SDS011;1985;48.592;8.850;2023-07-29T06:43:00;10.67;;;2.00;;
3941;SDS011;1985;48.592;8.850;2023-07-29T06:45:26;9.30;;;2.03;;
3941;SDS011;1985;48.592;8.850;2023-07-29T06:47:51;10.90;;;1.90;;
3941;SDS011;1985;48.592;8.850;2023-07-29T06:50:17;8.70;;;1.90;;
3941;SDS011;1985;48.592;8.850;2023-07-29T06:52:43;13.57;;;2.10;;
3941;SDS011;1985;48.592;8.850;2023-07-29T06:55:08;9.93;;;2.00;;
3941;SDS011;1985;48.592;8.850;2023-07-29T06:57:34;15.50;;;2.20;;
3941;SDS011;1985;48.592;8.850;2023-07-29T07:00:00;9.90;;;2.10;;
3941;SDS011;1985;48.592;8.850;2023-07-29T07:02:25;10.23;;;2.50;;
3941;SDS011;1985;48.592;8.850;2023-07-29T07:04:51;8.73;;;2.00;;
3941;SDS011;1985;48.592;8.850;2023-07-29T07:07:16;10.70;;;2.57;;
3941;SDS011;1985;48.592;8.850;2023-07-29T07:09:42;9.90;;;2.40;;
3941;SDS011;1985;48.592;8.850;2023-07-29T07:12:08;8.52;;;1.88;;
3941;SDS011;1985;48.592;8.850;2023-07-29T07:14:33;8.97;;;2.07;;
3941;SDS011;1985;48.592;8.850;2023-07-29T07:16:59;9.40;;;2.20;;
3941;SDS011;1985;48.592;8.850;2023-07-29T07:19:25;8.32;;;1.90;;
3941;SDS011;1985;48.592;8.850;2023-07-29T07:21:50;7.97;;;1.83;;
3941;SDS011;1985;48.592;8.850;2023-07-29T07:24:16;9.40;;;1.87;;
3941;SDS011;1985;48.592;8.850;2023-07-29T07:26:41;9.10;;;2.00;;
3941;SDS011;1985;48.592;8.850;2023-07-29T07:29:07;9.20;;;1.90;;
3941;SDS011;1985;48.592;8.850;2023-07-29T07:31:33;8.40;;;1.90;;
3941;SDS011;1985;48.592;8.850;2023-07-29T07:33:59;8.55;;;1.98;;
3941;SDS011;1985;48.592;8.850;2023-07-29T07:36:27;8.63;;;1.70;;
3941;SDS011;1985;48.592;8.850;2023-07-29T07:38:52;8.53;;;1.77;;
3941;SDS011;1985;48.592;8.850;2023-07-29T07:41:18;8.20;;;1.93;;
3941;SDS011;1985;48.592;8.850;2023-07-29T07:43:43;8.10;;;2.10;;
3941;SDS011;1985;48.592;8.850;2023-07-29T07:46:09;9.73;;;2.00;;
3941;SDS011;1985;48.592;8.850;2023-07-29T07:48:34;13.43;;;2.30;;
3941;SDS011;1985;48.592;8.850;2023-07-29T07:51:00;10.10;;;2.00;;
3941;SDS011;1985;48.592;8.850;2023-07-29T07:53:34;8.80;;;2.00;;
3941;SDS011;1985;48.592;8.850;2023-07-29T07:55:59;10.45;;;1.80;;
3941;SDS011;1985;48.592;8.850;2023-07-29T07:58:25;10.40;;;1.70;;
3941;SDS011;1985;48.592;8.850;2023-07-29T08:00:51;9.40;;;1.60;;
3941;SDS011;1985;48.592;8.850;2023-07-29T08:03:17;7.80;;;1.40;;
3941;SDS011;1985;48.592;8.850;2023-07-29T08:05:42;8.60;;;1.50;;
3941;SDS011;1985;48.592;8.850;2023-07-29T08:08:08;8.60;;;1.60;;
3941;SDS011;1985;48.592;8.850;2023-07-29T08:10:34;8.00;;;1.70;;
3941;SDS011;1985;48.592;8.850;2023-07-29T08:12:59;7.63;;;1.40;;
3941;SDS011;1985;48.592;8.850;2023-07-29T08:15:25;7.95;;;1.70;;
3941;SDS011;1985;48.592;8.850;2023-07-29T08:17:51;9.10;;;1.80;;
3941;SDS011;1985;48.592;8.850;2023-07-29T08:20:16;9.93;;;2.40;;
3941;SDS011;1985;48.592;8.850;2023-07-29T08:22:42;8.98;;;2.30;;
3941;SDS011;1985;48.592;8.850;2023-07-29T08:25:08;10.10;;;2.20;;
3941;SDS011;1985;48.592;8.850;2023-07-29T08:27:33;8.63;;;2.30;;
3941;SDS011;1985;48.592;8.850;2023-07-29T08:29:59;11.10;;;2.20;;
3941;SDS011;1985;48.592;8.850;2023-07-29T08:32:25;10.00;;;2.53;;
3941;SDS011;1985;48.592;8.850;2023-07-29T08:34:50;8.75;;;2.25;;
3941;SDS011;1985;48.592;8.850;2023-07-29T08:37:16;8.40;;;2.10;;
3941;SDS011;1985;48.592;8.850;2023-07-29T08:39:41;9.10;;;2.00;;
3941;SDS011;1985;48.592;8.850;2023-07-29T08:42:07;9.00;;;2.00;;
3941;SDS011;1985;48.592;8.850;2023-07-29T08:44:40;8.48;;;1.90;;
3941;SDS011;1985;48.592;8.850;2023-07-29T08:47:07;11.90;;;1.70;;
3941;SDS011;1985;48.592;8.850;2023-07-29T08:49:33;7.43;;;1.42;;
3941;SDS011;1985;48.592;8.850;2023-07-29T08:52:00;7.70;;;1.60;;
3941;SDS011;1985;48.592;8.850;2023-07-29T08:54:26;7.53;;;1.50;;
3941;SDS011;1985;48.592;8.850;2023-07-29T08:56:52;8.60;;;1.50;;
3941;SDS011;1985;48.592;8.850;2023-07-29T08:59:18;7.93;;;1.50;;
3941;SDS011;1985;48.592;8.850;2023-07-29T09:01:44;9.35;;;1.60;;
3941;SDS011;1985;48.592;8.850;2023-07-29T09:04:11;8.53;;;1.80;;
3941;SDS011;1985;48.592;8.850;2023-07-29T09:06:37;9.20;;;1.90;;
3941;SDS011;1985;48.592;8.850;2023-07-29T09:09:04;7.97;;;1.60;;
3941;SDS011;1985;48.592;8.850;2023-07-29T09:11:32;8.82;;;1.90;;
3941;SDS011;1985;48.592;8.850;2023-07-29T09:13:58;9.40;;;2.10;;
3941;SDS011;1985;48.592;8.850;2023-07-29T09:16:24;10.30;;;2.00;;
3941;SDS011;1985;48.592;8.850;2023-07-29T09:18:50;8.75;;;2.05;;
3941;SDS011;1985;48.592;8.850;2023-07-29T09:21:23;12.05;;;2.53;;
3941;SDS011;1985;48.592;8.850;2023-07-29T09:23:53;7.75;;;1.77;;
3941;SDS011;1985;48.592;8.850;2023-07-29T09:26:26;9.95;;;2.10;;
3941;SDS011;1985;48.592;8.850;2023-07-29T09:28:53;9.50;;;2.00;;
3941;SDS011;1985;48.592;8.850;2023-07-29T09:31:24;8.82;;;2.00;;
3941;SDS011;1985;48.592;8.850;2023-07-29T09:33:58;8.60;;;1.90;;
3941;SDS011;1985;48.592;8.850;2023-07-29T09:36:25;9.30;;;2.10;;
3941;SDS011;1985;48.592;8.850;2023-07-29T09:38:52;7.80;;;1.70;;
3941;SDS011;1985;48.592;8.850;2023-07-29T09:41:19;8.80;;;2.00;;
3941;SDS011;1985;48.592;8.850;2023-07-29T09:43:46;8.38;;;1.83;;
3941;SDS011;1985;48.592;8.850;2023-07-29T09:46:12;9.00;;;2.15;;
3941;SDS011;1985;48.592;8.850;2023-07-29T09:48:38;9.00;;;2.40;;
3941;SDS011;1985;48.592;8.850;2023-07-29T09:51:13;7.97;;;1.60;;
3941;SDS011;1985;48.592;8.850;2023-07-29T09:53:43;8.30;;;1.80;;
3941;SDS011;1985;48.592;8.850;2023-07-29T09:56:10;8.30;;;2.00;;
3941;SDS011;1985;48.592;8.850;2023-07-29T09:58:37;9.90;;;1.90;;
3941;SDS011;1985;48.592;8.850;2023-07-29T10:01:06;8.75;;;1.88;;
3941;SDS011;1985;48.592;8.850;2023-07-29T10:03:33;8.30;;;2.00;;
3941;SDS011;1985;48.592;8.850;2023-07-29T10:06:02;7.88;;;1.80;;
3941;SDS011;1985;48.592;8.850;2023-07-29T10:08:29;8.10;;;1.90;;
3941;SDS011;1985;48.592;8.850;2023-07-29T10:10:58;8.25;;;1.95;;
3941;SDS011;1985;48.592;8.850;2023-07-29T10:13:25;9.73;;;1.95;;
3941;SDS011;1985;48.592;8.850;2023-07-29T10:15:51;9.00;;;1.85;;
3941;SDS011;1985;48.592;8.850;2023-07-29T10:18:19;8.20;;;1.90;;
3941;SDS011;1985;48.592;8.850;2023-07-29T10:20:46;8.45;;;2.15;;
3941;SDS011;1985;48.592;8.850;2023-07-29T10:23:15;9.90;;;2.17;;
3941;SDS011;1985;48.592;8.850;2023-07-29T10:25:44;7.95;;;1.90;;
3941;SDS011;1985;48.592;8.850;2023-07-29T10:28:14;7.90;;;2.00;;
3941;SDS011;1985;48.592;8.850;2023-07-29T10:30:42;8.23;;;1.90;;
3941;SDS011;1985;48.592;8.850;2023-07-29T10:33:08;8.77;;;2.00;;
3941;SDS011;1985;48.592;8.850;2023-07-29T10:35:35;9.05;;;2.00;;
3941;SDS011;1985;48.592;8.850;2023-07-29T10:38:02;8.57;;;2.10;;
3941;SDS011;1985;48.592;8.850;2023-07-29T10:40:45;9.30;;;2.00;;
3941;SDS011;1985;48.592;8.850;2023-07-29T10:43:15;8.00;;;1.80;;
3941;SDS011;1985;48.592;8.850;2023-07-29T10:45:53;8.13;;;1.90;;
3941;SDS011;1985;48.592;8.850;2023-07-29T10:56:26;8.57;;;2.15;;
3941;SDS011;1985;48.592;8.850;2023-07-29T10:58:56;9.13;;;2.05;;
3941;SDS011;1985;48.592;8.850;2023-07-29T11:01:43;8.18;;;1.90;;
3941;SDS011;1985;48.592;8.850;2023-07-29T11:04:29;7.90;;;2.10;;
3941;SDS011;1985;48.592;8.850;2023-07-29T11:12:50;9.70;;;2.00;;
3941;SDS011;1985;48.592;8.850;2023-07-29T11:17:52;8.25;;;2.00;;
3941;SDS011;1985;48.592;8.850;2023-07-29T11:20:20;7.93;;;2.10;;
3941;SDS011;1985;48.592;8.850;2023-07-29T11:22:47;8.98;;;2.20;;
3941;SDS011;1985;48.592;8.850;2023-07-29T11:25:14;7.90;;;1.90;;
3941;SDS011;1985;48.592;8.850;2023-07-29T11:27:41;11.25;;;2.70;;
3941;SDS011;1985;48.592;8.850;2023-07-29T11:30:08;8.57;;;2.15;;
3941;SDS011;1985;48.592;8.850;2023-07-29T11:32:36;8.30;;;2.20;;
3941;SDS011;1985;48.592;8.850;2023-07-29T11:35:03;9.80;;;2.30;;
3941;SDS011;1985;48.592;8.850;2023-07-29T11:37:29;8.10;;;1.63;;
3941;SDS011;1985;48.592;8.850;2023-07-29T11:39:54;8.60;;;2.30;;
3941;SDS011;1985;48.592;8.850;2023-07-29T11:42:20;8.70;;;1.80;;
3941;SDS011;1985;48.592;8.850;2023-07-29T11:44:46;8.82;;;2.03;;
3941;SDS011;1985;48.592;8.850;2023-07-29T11:47:12;9.57;;;1.90;;
3941;SDS011;1985;48.592;8.850;2023-07-29T11:49:39;8.80;;;1.80;;
3941;SDS011;1985;48.592;8.850;2023-07-29T11:52:09;8.27;;;1.77;;
3941;SDS011;1985;48.592;8.850;2023-07-29T11:54:36;8.35;;;2.13;;
3941;SDS011;1985;48.592;8.850;2023-07-29T11:57:03;9.88;;;2.13;;
3941;SDS011;1985;48.592;8.850;2023-07-29T11:59:36;8.63;;;1.80;;
3941;SDS011;1985;48.592;8.850;2023-07-29T12:02:08;8.57;;;2.20;;
3941;SDS011;1985;48.592;8.850;2023-07-29T12:04:36;7.60;;;1.50;;
3941;SDS011;1985;48.592;8.850;2023-07-29T12:07:02;8.33;;;1.90;;
3941;SDS011;1985;48.592;8.850;2023-07-29T12:09:28;7.90;;;1.80;;
3941;SDS011;1985;48.592;8.850;2023-07-29T12:11:55;8.43;;;2.00;;
3941;SDS011;1985;48.592;8.850;2023-07-29T12:14:21;8.80;;;1.90;;
3941;SDS011;1985;48.592;8.850;2023-07-29T12:16:50;8.77;;;2.10;;
3941;SDS011;1985;48.592;8.850;2023-07-29T12:19:17;9.48;;;2.00;;
3941;SDS011;1985;48.592;8.850;2023-07-29T12:21:43;8.07;;;1.90;;
3941;SDS011;1985;48.592;8.850;2023-07-29T12:24:09;11.05;;;2.10;;
3941;SDS011;1985;48.592;8.850;2023-07-29T12:26:37;8.00;;;1.90;;
3941;SDS011;1985;48.592;8.850;2023-07-29T12:29:12;8.10;;;1.83;;
3941;SDS011;1985;48.592;8.850;2023-07-29T12:31:39;9.13;;;1.90;;
3941;SDS011;1985;48.592;8.850;2023-07-29T12:34:05;9.10;;;2.20;;
3941;SDS011;1985;48.592;8.850;2023-07-29T12:36:43;8.63;;;2.10;;
3941;SDS011;1985;48.592;8.850;2023-07-29T12:39:20;8.10;;;1.90;;
3941;SDS011;1985;48.592;8.850;2023-07-29T12:41:47;9.77;;;2.15;;
3941;SDS011;1985;48.592;8.850;2023-07-29T12:44:14;7.50;;;1.60;;
3941;SDS011;1985;48.592;8.850;2023-07-29T12:46:39;10.87;;;2.40;;
3941;SDS011;1985;48.592;8.850;2023-07-29T12:49:05;7.90;;;1.60;;
3941;SDS011;1985;48.592;8.850;2023-07-29T12:51:31;10.05;;;2.20;;
3941;SDS011;1985;48.592;8.850;2023-07-29T12:53:58;8.00;;;1.90;;
3941;SDS011;1985;48.592;8.850;2023-07-29T12:56:23;8.30;;;2.10;;
3941;SDS011;1985;48.592;8.850;2023-07-29T12:58:49;8.80;;;2.10;;
3941;SDS011;1985;48.592;8.850;2023-07-29T13:01:15;9.00;;;1.90;;
3941;SDS011;1985;48.592;8.850;2023-07-29T13:03:46;8.10;;;1.85;;
3941;SDS011;1985;48.592;8.850;2023-07-29T13:06:12;7.90;;;1.80;;
3941;SDS011;1985;48.592;8.850;2023-07-29T13:08:38;8.30;;;1.80;;
3941;SDS011;1985;48.592;8.850;2023-07-29T13:11:04;7.80;;;1.70;;
3941;SDS011;1985;48.592;8.850;2023-07-29T13:13:30;7.90;;;1.60;;
3941;SDS011;1985;48.592;8.850;2023-07-29T13:15:56;7.95;;;1.77;;
3941;SDS011;1985;48.592;8.850;2023-07-29T13:18:22;7.85;;;1.75;;
3941;SDS011;1985;48.592;8.850;2023-07-29T13:20:48;8.75;;;2.05;;
3941;SDS011;1985;48.592;8.850;2023-07-29T13:23:14;8.27;;;2.15;;
3941;SDS011;1985;48.592;8.850;2023-07-29T13:25:40;8.00;;;1.80;;
3941;SDS011;1985;48.592;8.850;2023-07-29T13:28:06;8.65;;;1.80;;
3941;SDS011;1985;48.592;8.850;2023-07-29T13:30:32;8.63;;;1.90;;
3941;SDS011;1985;48.592;8.850;2023-07-29T13:32:58;8.80;;;1.63;;
3941;SDS011;1985;48.592;8.850;2023-07-29T13:35:24;8.80;;;1.90;;
3941;SDS011;1985;48.592;8.850;2023-07-29T13:37:49;8.13;;;1.98;;
3941;SDS011;1985;48.592;8.850;2023-07-29T13:40:15;10.10;;;2.40;;
3941;SDS011;1985;48.592;8.850;2023-07-29T13:42:40;8.03;;;1.90;;
3941;SDS011;1985;48.592;8.850;2023-07-29T13:45:06;7.93;;;1.60;;
3941;SDS011;1985;48.592;8.850;2023-07-29T13:47:33;9.52;;;1.83;;
3941;SDS011;1985;48.592;8.850;2023-07-29T13:49:59;9.93;;;2.00;;
3941;SDS011;1985;48.592;8.850;2023-07-29T13:52:25;11.60;;;1.90;;
3941;SDS011;1985;48.592;8.850;2023-07-29T13:54:50;10.07;;;2.10;;
3941;SDS011;1985;48.592;8.850;2023-07-29T13:57:16;7.80;;;1.70;;
3941;SDS011;1985;48.592;8.850;2023-07-29T13:59:42;8.10;;;1.87;;
3941;SDS011;1985;48.592;8.850;2023-07-29T14:02:07;8.23;;;1.97;;
3941;SDS011;1985;48.592;8.850;2023-07-29T14:04:33;7.80;;;1.70;;
3941;SDS011;1985;48.592;8.850;2023-07-29T14:06:59;7.70;;;1.70;;
3941;SDS011;1985;48.592;8.850;2023-07-29T14:09:25;8.83;;;1.93;;
3941;SDS011;1985;48.592;8.850;2023-07-29T14:11:51;7.88;;;1.90;;
3941;SDS011;1985;48.592;8.850;2023-07-29T14:14:18;10.00;;;1.90;;
3941;SDS011;1985;48.592;8.850;2023-07-29T14:16:44;7.90;;;1.70;;
3941;SDS011;1985;48.592;8.850;2023-07-29T14:19:09;7.97;;;1.90;;
3941;SDS011;1985;48.592;8.850;2023-07-29T14:21:35;8.40;;;1.97;;
3941;SDS011;1985;48.592;8.850;2023-07-29T14:24:01;9.90;;;2.20;;
3941;SDS011;1985;48.592;8.850;2023-07-29T14:26:26;8.00;;;2.00;;
3941;SDS011;1985;48.592;8.850;2023-07-29T14:28:52;8.00;;;1.80;;
3941;SDS011;1985;48.592;8.850;2023-07-29T14:31:17;9.63;;;2.00;;
3941;SDS011;1985;48.592;8.850;2023-07-29T14:33:43;7.93;;;1.85;;
3941;SDS011;1985;48.592;8.850;2023-07-29T14:36:09;9.05;;;2.00;;
3941;SDS011;1985;48.592;8.850;2023-07-29T14:38:35;9.97;;;2.10;;
3941;SDS011;1985;48.592;8.850;2023-07-29T14:41:01;8.90;;;2.30;;
3941;SDS011;1985;48.592;8.850;2023-07-29T14:43:27;9.20;;;2.05;;
3941;SDS011;1985;48.592;8.850;2023-07-29T14:45:53;8.90;;;2.10;;
3941;SDS011;1985;48.592;8.850;2023-07-29T14:48:19;7.80;;;2.00;;
3941;SDS011;1985;48.592;8.850;2023-07-29T14:50:44;8.50;;;1.98;;
3941;SDS011;1985;48.592;8.850;2023-07-29T14:53:10;8.30;;;1.90;;
3941;SDS011;1985;48.592;8.850;2023-07-29T14:55:36;8.05;;;1.90;;
3941;SDS011;1985;48.592;8.850;2023-07-29T14:58:02;8.70;;;1.60;;
3941;SDS011;1985;48.592;8.850;2023-07-29T15:00:28;8.50;;;2.00;;
3941;SDS011;1985;48.592;8.850;2023-07-29T15:02:54;7.60;;;1.73;;
3941;SDS011;1985;48.592;8.850;2023-07-29T15:05:19;7.90;;;1.80;;
3941;SDS011;1985;48.592;8.850;2023-07-29T15:07:45;8.15;;;2.00;;
3941;SDS011;1985;48.592;8.850;2023-07-29T15:10:13;7.90;;;1.80;;
3941;SDS011;1985;48.592;8.850;2023-07-29T15:12:39;10.02;;;2.00;;
3941;SDS011;1985;48.592;8.850;2023-07-29T15:15:05;8.30;;;1.90;;
3941;SDS011;1985;48.592;8.850;2023-07-29T15:17:31;9.70;;;2.03;;
3941;SDS011;1985;48.592;8.850;2023-07-29T15:19:57;7.60;;;1.70;;
3941;SDS011;1985;48.592;8.850;2023-07-29T15:22:22;7.90;;;1.87;;
3941;SDS011;1985;48.592;8.850;2023-07-29T15:24:48;8.87;;;1.90;;
3941;SDS011;1985;48.592;8.850;2023-07-29T15:27:14;8.40;;;1.90;;
3941;SDS011;1985;48.592;8.850;2023-07-29T15:29:39;8.10;;;1.80;;
3941;SDS011;1985;48.592;8.850;2023-07-29T15:32:05;9.70;;;2.10;;